Time;durP1;ratioP1;P1;durP2;ratioP2;P2;SDS_P1;SDS_P2;PMS_P1;PMS_P2;Temp;Humidity;BMP_temperature;BMP_pressure;BME280_temperature;BME280_humidity;BME280_pressure;Samples;Min_cycle;Max_cycle;Signal;HPM_P1;HPM_P2
2021/03/21 00:01:57;;;;;;;9.88;5.97;;;;;;;3.77;79.89;99057.75;4906904;29;20032;-81
2021/03/21 00:08:14;;;;;;;8.38;5.25;;;;;;;3.71;80.33;99061.31;5833293;23;20048;-81
2021/03/21 00:10:40;;;;;;;9.05;6.25;;;;;;;3.68;80.39;99060.72;4922159;29;20131;-80
2021/03/21 00:13:05;;;;;;;10.55;5.78;;;;;;;3.65;80.45;99052.44;4926990;29;20023;-81
2021/03/21 00:15:32;;;;;;;7.45;5.60;;;;;;;3.66;81.43;99051.41;4926534;29;20035;-81
2021/03/21 00:17:58;;;;;;;8.57;6.13;;;;;;;3.63;81.25;99051.88;4926323;29;20538;-80
2021/03/21 00:20:33;;;;;;;10.45;6.88;;;;;;;3.61;81.21;99046.00;4910776;29;20040;-81
2021/03/21 00:23:00;;;;;;;10.43;6.40;;;;;;;3.63;81.41;99036.81;4896837;29;20085;-81
2021/03/21 00:25:28;;;;;;;9.68;5.78;;;;;;;3.64;81.84;99032.34;4888274;29;20177;-80
2021/03/21 00:27:54;;;;;;;8.82;6.70;;;;;;;3.64;81.20;99038.44;4888005;29;20040;-79
2021/03/21 00:30:24;;;;;;;13.00;7.32;;;;;;;3.65;82.13;99028.63;4891015;29;20024;-81
2021/03/21 00:32:50;;;;;;;11.35;7.32;;;;;;;3.62;82.44;99032.56;4872523;29;20033;-80
2021/03/21 00:35:15;;;;;;;10.20;6.47;;;;;;;3.61;82.61;99015.06;4888975;29;20040;-79
2021/03/21 00:38:05;;;;;;;12.60;7.90;;;;;;;3.63;82.38;99028.09;4894482;29;20032;-81
2021/03/21 00:40:32;;;;;;;10.50;7.03;;;;;;;3.61;81.92;99016.94;4887867;29;20082;-81
2021/03/21 00:45:40;;;;;;;12.77;7.53;;;;;;;3.58;82.37;98998.88;5459254;23;20070;-79
2021/03/21 00:48:17;;;;;;;9.55;6.50;;;;;;;3.53;82.45;98978.44;4917669;29;20032;-78
2021/03/21 00:51:14;;;;;;;9.65;6.45;;;;;;;3.44;81.78;98964.75;4933029;29;20019;-79
2021/03/21 00:54:07;;;;;;;11.30;6.38;;;;;;;3.40;81.80;98971.53;4929763;29;20023;-81
2021/03/21 00:57:07;;;;;;;10.43;6.30;;;;;;;3.40;81.86;98981.31;4936325;29;20072;-80
2021/03/21 01:00:00;;;;;;;9.93;5.85;;;;;;;3.31;81.35;98989.56;4927999;29;20083;-82
2021/03/21 01:02:46;;;;;;;10.52;6.90;;;;;;;3.30;81.16;98998.53;4949061;29;20067;-78
2021/03/21 01:05:35;;;;;;;9.10;6.10;;;;;;;3.27;80.54;98999.00;4930950;29;20079;-81
2021/03/21 01:13:25;;;;;;;8.75;6.00;;;;;;;3.18;80.45;99010.94;4937980;28;20050;-81
2021/03/21 01:16:24;;;;;;;12.38;6.60;;;;;;;3.13;80.79;99008.97;4913392;29;20044;-78
2021/03/21 01:18:55;;;;;;;9.30;5.85;;;;;;;3.09;80.88;98999.91;4915075;29;20032;-80
2021/03/21 01:26:58;;;;;;;10.20;6.78;;;;;;;2.98;81.20;98992.75;5795277;23;20052;-80
2021/03/21 01:33:02;;;;;;;12.05;6.93;;;;;;;2.85;81.42;98986.63;4945581;29;20054;-81
2021/03/21 01:35:28;;;;;;;12.70;6.95;;;;;;;2.86;81.69;98982.16;4939695;29;20047;-79
2021/03/21 01:37:55;;;;;;;10.98;6.90;;;;;;;2.86;81.77;98984.81;4931101;29;20127;-82
2021/03/21 01:40:20;;;;;;;13.52;7.50;;;;;;;2.84;81.66;98990.31;4874800;29;20040;-81
2021/03/21 01:42:47;;;;;;;11.63;6.80;;;;;;;2.84;81.91;98984.22;4909310;29;20031;-80
2021/03/21 01:46:00;;;;;;;13.05;7.57;;;;;;;2.84;82.29;98995.59;4912400;29;20064;-82
2021/03/21 02:10:05;;;;;;;13.60;7.68;;;;;;;2.86;82.05;98987.44;4956970;29;20030;-82
2021/03/21 02:16:59;;;;;;;13.00;7.70;;;;;;;2.95;82.16;98998.50;4952663;29;20038;-82
2021/03/21 02:26:59;;;;;;;9.40;6.50;;;;;;;2.94;82.56;99002.16;4929758;29;20071;-80
2021/03/21 02:33:32;;;;;;;11.90;7.05;;;;;;;2.90;83.28;98999.16;4810091;29;20111;-80
2021/03/21 02:40:27;;;;;;;13.73;7.25;;;;;;;2.98;83.52;99017.34;4829507;29;20137;-85
2021/03/21 02:49:54;;;;;;;12.35;7.65;;;;;;;2.98;83.56;98987.44;5243612;23;20401;-80
2021/03/21 03:30:06;;;;;;;11.25;6.68;;;;;;;2.83;82.74;98995.81;5155677;22;20068;-80
2021/03/21 03:32:32;;;;;;;12.10;7.32;;;;;;;2.80;83.13;98999.72;5046611;28;20042;-81
2021/03/21 03:38:24;;;;;;;13.90;7.68;;;;;;;2.81;82.80;99000.53;5025811;28;20060;-81
2021/03/21 03:40:54;;;;;;;14.32;7.72;;;;;;;2.80;83.49;99001.56;5016767;28;20034;-81
2021/03/21 03:44:06;;;;;;;11.57;6.22;;;;;;;2.83;82.61;99022.22;5035687;28;20533;-82
2021/03/21 03:47:03;;;;;;;11.38;6.22;;;;;;;2.77;82.40;99002.81;5340560;23;20044;-82
2021/03/21 03:49:49;;;;;;;13.57;6.82;;;;;;;2.83;82.59;98995.81;5060295;28;20047;-80
2021/03/21 03:52:52;;;;;;;11.10;7.13;;;;;;;2.84;82.92;98992.94;5034238;28;20042;-79
2021/03/21 03:55:28;;;;;;;12.68;7.00;;;;;;;2.85;83.24;98991.91;5041908;28;20048;-79
2021/03/21 03:58:12;;;;;;;12.48;8.05;;;;;;;2.91;83.11;98998.13;5043578;28;20797;-79
2021/03/21 04:01:07;;;;;;;13.82;8.25;;;;;;;2.96;83.11;99000.09;5040159;28;20048;-79
2021/03/21 04:03:54;;;;;;;10.35;7.18;;;;;;;2.95;81.51;98995.84;5037114;28;20033;-80
2021/03/21 04:06:34;;;;;;;15.45;8.40;;;;;;;2.95;82.66;98974.72;5035317;28;20029;-82
2021/03/21 04:19:14;;;;;;;12.68;7.60;;;;;;;2.87;82.73;98986.44;5046501;28;20053;-82
2021/03/21 04:31:11;;;;;;;12.10;7.68;;;;;;;2.96;82.98;99010.66;5471549;23;20047;-81
2021/03/21 04:34:10;;;;;;;13.05;7.53;;;;;;;3.03;83.03;99017.44;4958871;29;20040;-83
2021/03/21 04:36:48;;;;;;;11.60;7.38;;;;;;;3.15;83.19;99024.59;4950901;29;20048;-82
2021/03/21 04:39:37;;;;;;;;;;;;;;;3.29;82.97;99039.22;4973397;28;20071;-82
2021/03/21 04:42:48;;;;;;;12.82;6.95;;;;;;;3.31;83.13;99029.22;4980312;29;19907;-82
2021/03/21 04:45:35;;;;;;;12.70;7.68;;;;;;;3.39;82.72;99017.50;4976804;28;20039;-82
2021/03/21 04:48:44;;;;;;;10.02;6.72;;;;;;;3.46;81.84;99020.84;4950304;29;20032;-82
2021/03/21 05:08:43;;;;;;;8.90;5.03;;;;;;;3.46;80.86;99012.91;5544864;23;20431;-82
2021/03/21 05:11:11;;;;;;;8.88;6.30;;;;;;;3.35;81.88;99026.94;4921920;29;20043;-83
2021/03/21 05:16:38;;;;;;;8.65;6.00;;;;;;;3.17;82.59;99014.59;5241080;23;20084;-82
2021/03/21 05:19:09;;;;;;;8.88;5.55;;;;;;;3.05;82.44;99014.56;4923755;29;20087;-83
2021/03/21 05:21:46;;;;;;;8.32;5.45;;;;;;;2.98;83.75;99005.94;5474002;23;20044;-80
2021/03/21 05:24:38;;;;;;;9.25;5.13;;;;;;;2.92;83.30;99012.97;4910436;29;20420;-82
2021/03/21 05:27:15;;;;;;;10.18;5.45;;;;;;;2.85;83.83;99002.47;4901415;29;20044;-80
2021/03/21 05:29:57;;;;;;;8.60;4.85;;;;;;;2.77;83.92;99007.28;4905452;29;20032;-80
2021/03/21 05:32:23;;;;;;;9.90;6.13;;;;;;;2.69;84.51;99008.41;4903689;29;20036;-81
2021/03/21 05:40:57;;;;;;;9.00;6.38;;;;;;;2.61;84.73;99004.25;5940323;23;20017;-81
2021/03/21 05:43:28;;;;;;;11.18;7.00;;;;;;;2.64;85.20;99016.22;4889661;29;20064;-82
2021/03/21 05:49:42;;;;;;;9.80;6.13;;;;;;;2.62;84.91;99019.06;5779162;23;20068;-82
2021/03/21 06:00:53;;;;;;;11.35;6.15;;;;;;;2.62;85.09;99018.28;5188971;23;20490;-83
2021/03/21 06:03:40;;;;;;;10.30;6.82;;;;;;;2.64;85.39;99027.56;4920166;29;20058;-81
2021/03/21 06:06:31;;;;;;;11.45;6.22;;;;;;;2.62;85.25;99023.56;4902280;29;20035;-82
2021/03/21 06:18:34;;;;;;;10.15;5.93;;;;;;;2.58;85.79;99022.41;5517543;23;20065;31
2021/03/21 06:24:54;;;;;;;10.30;6.78;;;;;;;2.48;85.52;99014.97;5006510;24;20037;-83
2021/03/21 06:28:06;;;;;;;8.90;5.80;;;;;;;2.50;85.10;99034.88;4875507;29;20129;-83
2021/03/21 06:31:14;;;;;;;11.95;7.97;;;;;;;2.52;85.81;99034.66;4784964;30;20047;-82
2021/03/21 06:41:47;;;;;;;10.82;5.18;;;;;;;2.51;85.22;99041.75;5425348;23;20073;-83
2021/03/21 06:44:22;;;;;;;8.00;4.55;;;;;;;2.50;85.69;99047.25;4888407;29;20045;-81
2021/03/21 06:47:03;;;;;;;10.13;6.30;;;;;;;2.48;85.25;99039.56;4871172;29;20096;-82
2021/03/21 06:53:40;;;;;;;11.52;5.35;;;;;;;2.49;85.57;99066.75;4884341;29;20032;-83
2021/03/21 07:07:12;;;;;;;16.75;7.35;;;;;;;2.42;85.19;99056.28;5347145;23;20060;-83
2021/03/21 07:31:20;;;;;;;7.70;5.45;;;;;;;2.41;85.25;99025.63;5509846;23;20029;31
2021/03/21 07:34:15;;;;;;;8.57;5.93;;;;;;;2.43;85.45;99028.06;4976711;24;20136;-79
2021/03/21 07:37:09;;;;;;;11.48;7.03;;;;;;;2.45;85.57;99029.44;4851133;29;20045;-78
2021/03/21 07:40:09;;;;;;;11.85;6.85;;;;;;;2.49;86.13;99030.63;4835904;29;20061;-79
2021/03/21 07:43:19;;;;;;;6.20;4.63;;;;;;;2.53;84.95;99039.69;4860591;29;20078;-79
2021/03/21 07:46:13;;;;;;;7.20;5.35;;;;;;;2.50;85.29;99040.16;4860615;29;20141;-81
2021/03/21 07:48:51;;;;;;;9.00;5.82;;;;;;;2.55;85.81;99039.47;4846800;29;20048;-79
2021/03/21 07:51:31;;;;;;;10.67;6.70;;;;;;;2.58;85.74;99040.88;4863024;29;20038;-77
2021/03/21 07:54:13;;;;;;;9.48;6.45;;;;;;;2.59;85.58;99040.66;4846813;29;20498;-78
2021/03/21 07:57:12;;;;;;;9.30;5.88;;;;;;;2.66;85.82;99053.75;4847661;29;20585;-80
2021/03/21 07:59:39;;;;;;;8.48;5.75;;;;;;;2.69;85.49;99048.81;4852671;29;20044;-82
2021/03/21 08:20:37;;;;;;;8.30;6.10;;;;;;;2.85;85.18;99042.09;4975132;23;20074;-81
2021/03/21 08:23:26;;;;;;;3.72;2.45;;;;;;;2.84;84.31;99039.69;4832006;29;20049;-77
2021/03/21 08:32:10;;;;;;;12.38;5.78;;;;;;;2.85;84.80;99028.09;5227070;24;20087;-79
2021/03/21 08:34:47;;;;;;;7.35;4.50;;;;;;;2.86;85.71;99035.00;4826486;29;20322;-80
2021/03/21 08:37:22;;;;;;;5.43;3.90;;;;;;;2.83;84.05;99024.88;4813278;29;20060;-80
2021/03/21 08:40:29;;;;;;;7.63;4.40;;;;;;;2.81;84.76;99024.31;4911926;24;20040;-80
2021/03/21 08:43:21;;;;;;;9.10;4.57;;;;;;;2.85;84.45;99031.53;4808957;29;20038;-83
2021/03/21 08:45:46;;;;;;;;;;;;;;;2.88;84.80;99022.34;4816931;29;20046;-82
2021/03/21 08:54:06;;;;;;;7.20;3.90;;;;;;;2.99;84.66;99016.31;5243946;24;20056;-78
2021/03/21 09:00:27;;;;;;;3.63;3.28;;;;;;;3.04;84.22;99010.34;4715309;30;20150;-77
2021/03/21 09:02:59;;;;;;;8.07;4.10;;;;;;;2.99;84.06;99000.47;4769565;29;20042;-86
2021/03/21 09:12:33;;;;;;;8.02;4.70;;;;;;;3.18;84.59;99000.38;5585258;24;20710;-82
2021/03/21 09:18:40;;;;;;;5.53;4.10;;;;;;;3.27;83.63;98995.53;4877980;29;20132;-83
2021/03/21 09:21:39;;;;;;;7.25;4.97;;;;;;;3.31;83.62;98986.94;4859862;29;20073;-82
2021/03/21 09:24:33;;;;;;;6.15;4.15;;;;;;;3.40;84.26;98990.03;4837299;29;20029;-82
2021/03/21 09:40:41;;;;;;;5.28;4.32;;;;;;;3.54;82.68;98961.53;4845035;29;20057;-81
2021/03/21 09:43:16;;;;;;;6.78;3.70;;;;;;;3.57;83.06;98953.13;4845027;29;20510;-78
2021/03/21 09:52:12;;;;;;;7.32;5.03;;;;;;;3.52;83.19;98922.06;4863332;29;20041;-81
2021/03/21 09:55:05;;;;;;;12.25;6.88;;;;;;;3.53;83.42;98922.91;4829725;29;20030;-79
2021/03/21 09:57:49;;;;;;;9.10;4.63;;;;;;;3.52;82.57;98935.28;4827568;29;20093;-74
2021/03/21 10:00:23;;;;;;;7.70;4.32;;;;;;;3.52;82.63;98937.16;4821601;29;20026;-78
2021/03/21 10:02:55;;;;;;;9.10;5.75;;;;;;;3.54;83.02;98924.50;4841171;29;20030;-76
2021/03/21 10:05:42;;;;;;;4.97;3.95;;;;;;;3.59;83.03;98923.78;4825764;29;20034;-75
2021/03/21 10:08:08;;;;;;;14.13;7.65;;;;;;;3.62;83.07;98925.97;4818346;29;20125;-77
2021/03/21 10:10:45;;;;;;;14.48;8.90;;;;;;;3.63;83.02;98924.94;4841709;29;20114;-78
2021/03/21 10:13:10;;;;;;;11.68;7.22;;;;;;;3.70;83.17;98930.91;4838821;29;20045;-77
2021/03/21 10:16:13;;;;;;;17.30;8.77;;;;;;;3.80;82.76;98932.97;4839873;29;20028;-76
2021/03/21 10:18:45;;;;;;;13.85;7.35;;;;;;;3.86;82.71;98934.66;4835514;29;20033;-76
2021/03/21 10:21:32;;;;;;;7.35;4.95;;;;;;;3.86;80.97;98939.97;4840061;29;20042;-75
2021/03/21 10:24:22;;;;;;;11.00;7.03;;;;;;;3.97;81.81;98948.91;4840735;29;20050;-77
2021/03/21 10:27:12;;;;;;;10.27;6.78;;;;;;;4.06;81.63;98944.03;4825906;29;20041;-76
2021/03/21 10:29:42;;;;;;;8.60;5.78;;;;;;;4.07;80.57;98935.88;4841454;29;20117;-76
2021/03/21 10:32:27;;;;;;;5.15;3.45;;;;;;;4.11;79.70;98928.25;4827352;29;20025;-77
2021/03/21 10:34:53;;;;;;;7.05;4.40;;;;;;;4.11;79.71;98922.97;4844965;29;20026;-77
2021/03/21 10:37:40;;;;;;;8.65;5.45;;;;;;;4.15;80.10;98913.50;4825838;29;20057;-79
2021/03/21 10:40:11;;;;;;;5.47;4.05;;;;;;;4.13;79.66;98919.03;4828083;29;20508;-78
2021/03/21 10:42:41;;;;;;;4.43;3.97;;;;;;;4.18;80.76;98917.53;4826144;29;20515;-78
2021/03/21 10:45:14;;;;;;;9.65;4.70;;;;;;;4.24;80.84;98914.72;4826898;29;20045;-80
2021/03/21 10:47:43;;;;;;;9.65;5.88;;;;;;;4.26;79.84;98917.97;4827266;29;20037;-80
2021/03/21 10:50:53;;;;;;;10.80;6.25;;;;;;;4.35;79.86;98910.44;4835491;29;20037;-80
2021/03/21 10:53:23;;;;;;;13.35;7.03;;;;;;;4.41;79.27;98911.34;4818702;29;20046;-81
2021/03/21 10:56:27;;;;;;;13.45;7.75;;;;;;;4.51;79.10;98903.53;4845010;29;20037;-80
2021/03/21 10:58:54;;;;;;;15.77;7.60;;;;;;;4.58;79.04;98900.75;4781279;29;20098;-80
2021/03/21 11:01:31;;;;;;;13.13;10.18;;;;;;;4.66;79.27;98903.00;4831046;29;20037;-79
2021/03/21 11:03:57;;;;;;;19.10;10.32;;;;;;;4.72;79.32;98907.31;4858043;29;20049;-79
2021/03/21 11:06:24;;;;;;;12.60;8.07;;;;;;;4.76;79.32;98892.56;4844196;29;20513;-79
2021/03/21 11:08:50;;;;;;;17.67;8.98;;;;;;;4.80;78.81;98883.09;4843220;29;20034;-79
2021/03/21 11:11:17;;;;;;;10.80;6.70;;;;;;;4.81;77.85;98882.03;4842469;29;20043;-77
2021/03/21 11:13:44;;;;;;;8.50;5.45;;;;;;;4.79;77.91;98876.19;4845457;29;20037;-77
2021/03/21 11:16:24;;;;;;;8.70;6.22;;;;;;;4.83;77.56;98876.50;4846048;29;20037;-80
2021/03/21 11:18:53;;;;;;;9.52;5.90;;;;;;;4.84;77.78;98866.72;4846088;29;20046;-78
2021/03/21 11:21:18;;;;;;;8.48;4.35;;;;;;;4.83;77.77;98865.09;4845117;29;20033;-80
2021/03/21 11:24:17;;;;;;;8.48;5.15;;;;;;;4.83;77.30;98865.91;4846427;29;20355;-80
2021/03/21 11:26:42;;;;;;;6.63;4.57;;;;;;;4.87;77.18;98845.00;4845492;29;20033;-80
2021/03/21 11:29:22;;;;;;;6.60;4.20;;;;;;;4.88;76.91;98839.50;4846285;29;20056;-78
2021/03/21 11:31:48;;;;;;;7.82;4.55;;;;;;;4.90;77.28;98837.38;4846065;29;20504;-80
2021/03/21 11:34:22;;;;;;;9.77;5.57;;;;;;;4.99;77.58;98842.28;4847604;29;20040;-80
2021/03/21 11:37:03;;;;;;;10.73;6.95;;;;;;;5.03;77.51;98830.13;4859783;29;20034;-77
2021/03/21 11:39:40;;;;;;;9.15;5.95;;;;;;;5.06;77.20;98821.69;4861947;29;20033;-81
2021/03/21 11:42:24;;;;;;;9.32;6.82;;;;;;;5.11;77.27;98819.94;4860495;29;20037;-82
2021/03/21 11:44:53;;;;;;;10.63;6.53;;;;;;;5.14;77.30;98823.94;4856809;29;20029;-81
2021/03/21 11:47:25;;;;;;;11.20;7.60;;;;;;;5.13;77.61;98830.28;4856773;29;20379;-83
2021/03/21 11:49:53;;;;;;;12.95;8.63;;;;;;;5.17;78.09;98831.38;4855078;29;20136;-79
2021/03/21 11:52:20;;;;;;;8.70;6.60;;;;;;;5.21;77.18;98823.75;4871226;29;20128;-78
2021/03/21 11:54:46;;;;;;;4.05;2.80;;;;;;;5.18;75.20;98813.66;4866929;29;20104;-78
2021/03/21 11:57:25;;;;;;;4.82;3.60;;;;;;;5.16;75.48;98810.44;4849136;29;20108;-78
2021/03/21 12:00:06;;;;;;;7.75;4.45;;;;;;;5.18;75.62;98805.69;4865862;29;20033;-78
2021/03/21 12:03:01;;;;;;;6.63;4.65;;;;;;;5.21;75.89;98803.34;4853911;29;20037;-77
2021/03/21 12:05:31;;;;;;;11.57;5.70;;;;;;;5.21;76.51;98787.44;4848746;29;20049;-83
2021/03/21 12:08:06;;;;;;;6.88;3.67;;;;;;;5.22;75.31;98793.53;4859097;29;20036;-83
2021/03/21 12:10:34;;;;;;;7.40;4.40;;;;;;;5.18;74.71;98777.31;4862104;29;20029;-81
2021/03/21 12:13:30;;;;;;;6.00;4.53;;;;;;;5.17;75.14;98781.00;4857509;29;20033;-83
2021/03/21 12:15:57;;;;;;;3.22;2.47;;;;;;;5.18;76.15;98771.22;4861082;29;20041;-80
2021/03/21 12:18:25;;;;;;;6.20;3.60;;;;;;;5.15;76.67;98769.06;4849313;29;20042;-80
2021/03/21 12:21:09;;;;;;;5.93;4.60;;;;;;;5.11;76.90;98763.44;4847267;29;20037;-80
2021/03/21 12:23:42;;;;;;;3.58;2.70;;;;;;;5.09;76.08;98765.53;4846131;29;20617;-80
2021/03/21 12:26:21;;;;;;;2.95;2.55;;;;;;;5.01;76.24;98758.81;4840649;29;20132;-80
2021/03/21 12:28:58;;;;;;;5.75;3.65;;;;;;;4.96;77.54;98741.00;4846289;29;20045;-80
2021/03/21 12:31:30;;;;;;;4.32;2.50;;;;;;;4.95;77.02;98751.84;4847531;29;20109;-80
2021/03/21 12:33:57;;;;;;;2.67;2.05;;;;;;;4.84;75.99;98744.84;4845792;29;20477;-80
2021/03/21 12:36:28;;;;;;;3.80;3.00;;;;;;;4.81;76.94;98749.56;4846091;29;20043;-80
2021/03/21 12:39:28;;;;;;;3.13;2.08;;;;;;;4.73;76.50;98762.44;4845536;29;20490;-80
2021/03/21 12:41:54;;;;;;;5.22;2.17;;;;;;;4.66;76.48;98749.34;4835399;29;20606;-81
2021/03/21 12:44:31;;;;;;;2.53;2.10;;;;;;;4.67;77.00;98756.25;4847432;29;20064;-81
2021/03/21 12:47:06;;;;;;;2.80;1.85;;;;;;;4.69;77.45;98748.06;4845973;29;20033;-80
2021/03/21 12:49:38;;;;;;;2.97;1.88;;;;;;;4.72;77.45;98747.59;4833295;29;20426;-80
2021/03/21 12:52:07;;;;;;;4.72;3.00;;;;;;;4.78;78.02;98749.25;4831605;29;20040;-79
2021/03/21 12:54:34;;;;;;;3.90;3.03;;;;;;;4.83;78.36;98730.75;4846785;29;20103;-79
2021/03/21 12:57:00;;;;;;;2.88;2.42;;;;;;;4.84;77.87;98721.00;4849231;29;20097;-80
2021/03/21 12:59:25;;;;;;;4.97;2.72;;;;;;;4.79;77.36;98724.38;4847221;29;20037;-81
2021/03/21 13:01:51;;;;;;;7.55;4.82;;;;;;;4.78;77.67;98726.19;4845048;29;20116;-79
2021/03/21 13:04:17;;;;;;;4.15;2.60;;;;;;;4.74;77.34;98733.03;4845268;29;20053;-79
2021/03/21 13:06:43;;;;;;;7.80;4.15;;;;;;;4.70;77.58;98750.47;4846759;29;20121;-79
2021/03/21 13:09:09;;;;;;;3.67;2.63;;;;;;;4.69;77.16;98763.94;4845462;29;20037;-79
2021/03/21 13:11:36;;;;;;;5.88;3.45;;;;;;;4.71;77.27;98770.63;4844805;29;20101;-78
2021/03/21 13:14:03;;;;;;;5.90;4.10;;;;;;;4.69;77.73;98766.59;4845468;29;20038;-78
2021/03/21 13:16:28;;;;;;;2.88;2.40;;;;;;;4.73;77.63;98743.91;4862457;29;20471;-78
2021/03/21 13:18:54;;;;;;;3.83;2.47;;;;;;;4.73;76.40;98720.84;4845592;29;20053;-77
2021/03/21 13:21:23;;;;;;;6.40;3.75;;;;;;;4.71;77.43;98716.84;4846037;29;20079;-78
2021/03/21 13:23:50;;;;;;;7.85;5.13;;;;;;;4.66;77.91;98720.22;4845487;29;20501;-77
2021/03/21 13:26:16;;;;;;;3.42;2.72;;;;;;;4.59;77.81;98709.81;4847024;29;20417;-78
2021/03/21 13:28:42;;;;;;;6.28;4.30;;;;;;;4.60;78.22;98713.25;4864086;29;20030;-76
2021/03/21 13:31:07;;;;;;;8.18;5.35;;;;;;;4.57;78.21;98705.81;4844759;29;20042;-79
2021/03/21 13:33:34;;;;;;;8.57;4.25;;;;;;;4.50;78.33;98713.91;4847939;29;20036;-83
2021/03/21 13:36:02;;;;;;;5.25;3.35;;;;;;;4.40;77.72;98714.56;4848781;29;20043;-77
2021/03/21 13:38:30;;;;;;;8.13;5.03;;;;;;;4.41;78.02;98712.75;4862145;29;20080;-79
2021/03/21 13:40:57;;;;;;;7.15;4.22;;;;;;;4.39;77.99;98697.09;4846454;29;20037;-78
2021/03/21 13:43:27;;;;;;;1.50;1.40;;;;;;;4.28;76.80;98690.84;4862531;29;20038;-78
2021/03/21 13:45:54;;;;;;;8.18;4.70;;;;;;;4.25;78.01;98693.19;4863394;29;20093;-78
2021/03/21 13:48:20;;;;;;;7.18;4.38;;;;;;;4.21;77.98;98682.28;4847580;29;20399;-81
2021/03/21 13:50:47;;;;;;;8.85;4.95;;;;;;;4.20;78.93;98674.56;4848148;29;20057;-80
2021/03/21 13:53:15;;;;;;;12.63;6.78;;;;;;;4.17;79.67;98667.91;4846574;29;20029;-81
2021/03/21 13:55:44;;;;;;;9.80;6.37;;;;;;;4.14;80.59;98665.78;4847523;29;20029;-76
2021/03/21 13:58:11;;;;;;;11.20;5.75;;;;;;;4.18;80.19;98680.13;4829466;29;20322;-80
2021/03/21 14:00:39;;;;;;;9.95;5.53;;;;;;;4.15;80.05;98668.19;4847422;29;20037;-77
2021/03/21 14:03:06;;;;;;;10.60;6.00;;;;;;;4.14;80.23;98647.25;4858715;29;20041;-77
2021/03/21 14:05:33;;;;;;;10.30;5.75;;;;;;;4.15;80.80;98648.81;4860453;29;20476;-78
2021/03/21 14:07:59;;;;;;;12.60;6.93;;;;;;;4.16;81.14;98655.72;4858372;29;20045;-77
2021/03/21 14:10:27;;;;;;;15.15;8.05;;;;;;;4.14;81.20;98655.19;4860179;29;20036;-78
2021/03/21 14:12:54;;;;;;;11.55;6.97;;;;;;;4.12;81.71;98659.91;4863879;29;20056;-78
2021/03/21 14:15:21;;;;;;;8.85;5.57;;;;;;;4.07;81.55;98652.69;4842579;29;20041;-79
2021/03/21 14:17:48;;;;;;;8.77;5.20;;;;;;;4.06;82.01;98671.47;4860548;29;20037;-78
2021/03/21 14:20:17;;;;;;;9.13;6.53;;;;;;;4.06;81.90;98680.19;4866657;29;20032;-79
2021/03/21 14:22:42;;;;;;;9.23;5.15;;;;;;;4.05;82.13;98677.81;4847791;29;20482;-78
2021/03/21 14:25:10;;;;;;;7.85;4.63;;;;;;;4.04;82.49;98666.44;4847549;29;20042;-81
2021/03/21 14:27:42;;;;;;;7.88;5.07;;;;;;;3.99;82.72;98643.34;4997289;24;20046;-82
2021/03/21 14:30:11;;;;;;;17.75;9.18;;;;;;;3.96;82.98;98621.84;4824886;29;20103;-80
2021/03/21 14:32:36;;;;;;;;;;;;;;;4.04;83.07;98632.03;4857251;24;20064;-79
2021/03/21 14:35:07;;;;;;;16.25;9.65;;;;;;;3.99;83.60;98584.31;4849909;29;19960;-81
2021/03/21 14:37:33;;;;;;;20.25;10.55;;;;;;;3.92;83.77;98547.47;4854661;29;20102;-79
2021/03/21 14:39:58;;;;;;;29.63;15.55;;;;;;;3.93;84.92;98541.13;4839946;29;20033;-80
2021/03/21 14:42:26;;;;;;;24.17;13.30;;;;;;;3.97;84.51;98560.75;4840805;29;20439;-81
2021/03/21 14:45:00;;;;;;;25.83;13.32;;;;;;;3.98;84.34;98559.72;4864693;29;20048;-79
2021/03/21 14:47:26;;;;;;;16.70;10.02;;;;;;;4.00;84.16;98565.56;4858560;29;20069;-78
2021/03/21 14:49:58;;;;;;;16.48;9.18;;;;;;;4.01;84.32;98563.72;4857277;29;20038;-79
2021/03/21 14:52:25;;;;;;;18.77;9.18;;;;;;;4.06;84.62;98563.78;4869397;29;20033;-80
2021/03/21 14:54:51;;;;;;;16.67;8.77;;;;;;;4.06;84.67;98561.13;4852337;29;20057;-80
2021/03/21 14:57:17;;;;;;;12.40;7.43;;;;;;;4.08;84.12;98571.50;4844883;29;20033;-81
2021/03/21 14:59:42;;;;;;;9.30;5.32;;;;;;;4.12;84.00;98572.59;4854778;29;20511;-80
2021/03/21 15:02:08;;;;;;;11.85;6.40;;;;;;;4.18;83.66;98576.91;4840701;29;20124;-81
2021/03/21 15:04:33;;;;;;;14.75;8.00;;;;;;;4.18;83.77;98574.25;4830028;29;20098;-79
2021/03/21 15:06:59;;;;;;;12.65;6.03;;;;;;;4.21;82.50;98584.34;4853789;29;20104;-81
2021/03/21 15:09:24;;;;;;;6.78;4.38;;;;;;;4.22;81.38;98580.66;4845081;29;20124;-79
2021/03/21 15:11:50;;;;;;;11.68;5.70;;;;;;;4.26;81.75;98578.31;4835437;29;20049;-77
2021/03/21 15:14:15;;;;;;;10.00;5.85;;;;;;;4.27;81.66;98586.03;4827180;29;20033;-79
2021/03/21 15:16:41;;;;;;;4.57;3.38;;;;;;;4.25;80.82;98569.56;4826055;29;20049;-80
2021/03/21 15:19:06;;;;;;;2.25;2.03;;;;;;;4.23;79.94;98573.53;4832764;29;20044;-77
2021/03/21 15:21:32;;;;;;;4.18;3.15;;;;;;;4.16;79.65;98563.91;4823333;29;20427;-78
2021/03/21 15:23:58;;;;;;;7.65;4.68;;;;;;;4.18;80.45;98550.44;4810093;29;20106;-78
2021/03/21 15:26:23;;;;;;;10.95;6.45;;;;;;;4.13;81.11;98534.50;4809972;29;20045;-79
2021/03/21 15:28:52;;;;;;;24.15;12.15;;;;;;;4.18;81.73;98544.34;4810379;29;20038;-78
2021/03/21 15:31:25;;;;;;;19.52;10.88;;;;;;;4.19;82.34;98524.75;4818659;29;20041;-74
2021/03/21 15:33:50;;;;;;;14.38;8.60;;;;;;;4.18;82.08;98517.88;4839947;29;20054;-75
2021/03/21 15:36:17;;;;;;;17.58;9.55;;;;;;;4.15;82.20;98522.63;4809519;29;20044;-77
2021/03/21 15:38:42;;;;;;;17.83;9.32;;;;;;;4.19;82.69;98535.34;4822131;29;20569;-79
2021/03/21 15:43:58;;;;;;;11.10;6.45;;;;;;;4.17;81.45;98517.06;4970191;23;20104;-80
2021/03/21 15:46:26;;;;;;;7.80;4.38;;;;;;;4.13;81.62;98506.16;4869324;29;20033;-83
2021/03/21 15:48:52;;;;;;;14.15;7.55;;;;;;;4.11;81.85;98502.19;4871563;29;20037;-82
2021/03/21 15:53:46;;;;;;;;;;;;;;;4.07;82.06;98486.00;4837423;29;20131;-79
2021/03/21 15:56:44;;;;;;;9.95;6.65;;;;;;;4.09;82.65;98491.03;4834003;29;19916;-81
2021/03/21 15:59:59;;;;;;;5.85;4.43;;;;;;;4.04;81.52;98488.31;4827168;29;20065;-83
2021/03/21 16:02:29;;;;;;;11.60;6.80;;;;;;;3.99;81.88;98487.22;4853196;29;20097;-80
2021/03/21 16:04:55;;;;;;;11.57;7.43;;;;;;;4.01;82.39;98479.03;4843021;29;20421;-82
2021/03/21 16:07:21;;;;;;;6.85;4.65;;;;;;;4.00;82.23;98475.59;4839343;29;20022;-81
2021/03/21 16:09:48;;;;;;;9.18;5.32;;;;;;;4.00;81.99;98491.47;4847761;29;20790;-76
2021/03/21 16:12:14;;;;;;;8.02;5.25;;;;;;;4.00;81.73;98490.66;4852599;29;20026;-76
2021/03/21 16:14:39;;;;;;;9.63;5.72;;;;;;;3.97;81.59;98478.72;4852243;29;20043;-76
2021/03/21 16:17:04;;;;;;;7.47;4.70;;;;;;;3.95;81.96;98475.53;4852542;29;20029;-76
2021/03/21 16:19:30;;;;;;;6.28;4.55;;;;;;;3.97;82.16;98485.88;4848142;29;20463;-77
2021/03/21 16:21:57;;;;;;;14.27;6.05;;;;;;;3.98;81.69;98488.28;4839010;29;20030;-78
2021/03/21 16:24:23;;;;;;;16.67;8.63;;;;;;;3.98;82.25;98480.34;4827665;29;20046;-79
2021/03/21 16:26:49;;;;;;;5.97;4.85;;;;;;;3.95;81.78;98472.09;4815076;29;20039;-77
2021/03/21 16:29:15;;;;;;;11.75;7.50;;;;;;;3.91;82.05;98482.38;4813064;29;20069;-77
2021/03/21 16:31:41;;;;;;;12.75;8.32;;;;;;;3.89;82.44;98481.81;4811173;29;20114;-76
2021/03/21 16:34:06;;;;;;;17.30;10.05;;;;;;;3.87;82.23;98481.28;4822412;29;20034;-77
2021/03/21 16:36:32;;;;;;;21.52;13.00;;;;;;;3.88;83.18;98469.63;4831721;29;20038;-77
2021/03/21 16:38:58;;;;;;;23.08;13.50;;;;;;;3.93;83.44;98458.31;4829462;29;20521;-76
2021/03/21 16:41:24;;;;;;;7.07;4.03;;;;;;;3.95;81.46;98464.94;4826722;29;20034;-76
2021/03/21 16:43:51;;;;;;;8.40;4.40;;;;;;;3.99;81.60;98483.78;4823460;29;20048;-77
2021/03/21 16:46:16;;;;;;;13.40;8.00;;;;;;;4.02;82.07;98485.94;4821441;29;20099;-78
2021/03/21 16:48:42;;;;;;;6.05;4.30;;;;;;;4.05;81.77;98476.69;4808068;29;20030;-78
2021/03/21 16:51:09;;;;;;;10.13;5.63;;;;;;;4.10;81.83;98461.69;4810365;29;20039;-78
2021/03/21 16:53:35;;;;;;;5.30;3.95;;;;;;;4.07;80.01;98448.94;4823448;29;20038;-79
2021/03/21 16:56:00;;;;;;;6.07;4.55;;;;;;;4.04;80.55;98443.34;4821397;29;20041;-80
2021/03/21 16:58:26;;;;;;;6.65;3.92;;;;;;;4.04;80.79;98446.81;4818858;29;20613;-78
2021/03/21 17:00:52;;;;;;;14.60;7.78;;;;;;;4.01;81.07;98463.94;4820263;29;20571;-78
2021/03/21 17:03:18;;;;;;;9.77;6.30;;;;;;;3.99;80.92;98459.97;4816749;29;20117;-79
2021/03/21 17:05:44;;;;;;;11.15;5.68;;;;;;;3.95;80.48;98449.06;4824873;29;20030;-77
2021/03/21 17:08:10;;;;;;;13.30;6.70;;;;;;;3.96;80.06;98434.00;4820730;29;20041;-77
2021/03/21 17:10:40;;;;;;;12.10;6.57;;;;;;;3.94;80.19;98439.56;4833810;29;20042;-81